Harp Township, Illinois
Current Conditions -  °F | °C
As of 10:15 PM on Friday 24 Oct 2014 (Local Time) from KAAA Reporting Station
Overcast Overcast  
Wind Chill: 14°   Ceiling: 4100
Heat Index: 14°   Visibility: 10mi
Dew Point: 12°   Wind: 0mph
Humidity: 86%   Direction: NA
Pressure: 29.98"   Gusts: NA
Location:  40.143°N, 88.9637°W
Report Text: KAAA 250315Z AUTO 00000KT 10SM OVC041 14/12 A2998 RMK AO2 T01430120
Loading
Personal Weather Stations






























Interactive Weather Map
Tropical Storm Tracking
New forecast layout! Learn more

10-Day Weather Forecast

Advertisements
Track Severe Weather on mobile